Time;durP1;ratioP1;P1;durP2;ratioP2;P2;SDS_P1;SDS_P2;PMS_P1;PMS_P2;Temp;Humidity;BMP_temperature;BMP_pressure;BME280_temperature;BME280_humidity;BME280_pressure;Samples;Min_cycle;Max_cycle;Signal;HPM_P1;HPM_P2
2024/01/21 00:01:23;;;;;;;16.13;7.95;;;-4.80;99.90;;;-6.02;100.00;98353.84;4975848;28;20041;-36
2024/01/21 00:03:49;;;;;;;17.48;7.97;;;-4.80;99.90;;;-6.04;100.00;98358.03;4979243;28;20034;-35
2024/01/21 00:06:15;;;;;;;19.15;8.18;;;-4.80;99.90;;;-6.09;100.00;98349.25;4976657;28;20537;-36
2024/01/21 00:08:41;;;;;;;18.38;8.02;;;-4.80;99.90;;;-6.06;100.00;98351.97;4979174;28;20038;-36
2024/01/21 00:11:07;;;;;;;15.65;7.63;;;-4.80;99.90;;;-6.03;100.00;98350.41;4957776;28;20041;-35
2024/01/21 00:13:33;;;;;;;14.10;7.18;;;-4.80;99.90;;;-5.98;100.00;98356.59;4981074;28;20042;-35
2024/01/21 00:15:59;;;;;;;14.88;7.70;;;-4.80;99.90;;;-5.98;100.00;98359.16;4963568;28;20035;-36
2024/01/21 00:18:25;;;;;;;19.15;8.38;;;-4.80;99.90;;;-6.01;100.00;98355.56;4982448;28;20033;-35
2024/01/21 00:20:50;;;;;;;18.33;7.68;;;-4.80;99.90;;;-6.07;100.00;98345.91;4971531;28;20035;-36
2024/01/21 00:23:17;;;;;;;14.35;7.22;;;-4.80;99.90;;;-6.03;100.00;98354.63;4978993;28;20053;-36
2024/01/21 00:25:42;;;;;;;14.63;7.32;;;-4.80;99.90;;;-6.02;100.00;98351.28;4977155;28;20118;-36
2024/01/21 00:28:08;;;;;;;16.80;8.35;;;-4.80;99.90;;;-6.03;100.00;98352.06;4974593;28;20030;-36
2024/01/21 00:30:34;;;;;;;17.08;7.65;;;-4.80;99.90;;;-6.04;100.00;98348.63;4975088;28;20160;-36
2024/01/21 00:33:00;;;;;;;17.77;7.95;;;-4.80;99.90;;;-6.07;100.00;98348.50;4979935;28;20033;-36
2024/01/21 00:35:25;;;;;;;17.13;7.53;;;-4.80;99.90;;;-6.07;100.00;98342.47;4972689;28;20030;-36
2024/01/21 00:37:51;;;;;;;16.98;8.23;;;-4.80;99.90;;;-6.12;100.00;98341.41;4977205;28;20077;-36
2024/01/21 00:40:17;;;;;;;14.23;7.30;;;-4.80;99.90;;;-6.07;100.00;98342.47;4977817;28;20030;-36
2024/01/21 00:42:44;;;;;;;17.90;7.70;;;-4.80;99.90;;;-6.15;100.00;98329.31;4978559;28;20511;-36
2024/01/21 00:45:09;;;;;;;17.95;8.02;;;-4.90;99.90;;;-6.10;100.00;98337.19;4974963;28;20030;-36
2024/01/21 00:47:35;;;;;;;18.88;8.63;;;-4.80;99.90;;;-6.13;100.00;98339.66;4971999;28;20084;-36
2024/01/21 00:50:01;;;;;;;19.10;8.05;;;-4.90;99.90;;;-6.15;100.00;98334.44;4979356;28;20118;-36
2024/01/21 00:52:27;;;;;;;16.08;7.68;;;-4.90;99.90;;;-6.20;100.00;98341.06;4972051;28;20031;-36
2024/01/21 00:54:53;;;;;;;17.67;8.50;;;-4.90;99.90;;;-6.18;100.00;98337.75;4949500;28;20455;-36
2024/01/21 00:57:19;;;;;;;17.88;8.20;;;-4.90;99.90;;;-6.17;100.00;98338.66;4969050;28;20035;-37
2024/01/21 00:59:45;;;;;;;17.48;7.78;;;-4.90;99.90;;;-6.17;100.00;98341.22;4959270;28;20487;-36
2024/01/21 01:02:11;;;;;;;18.35;7.93;;;-4.90;99.90;;;-6.19;100.00;98337.69;4975642;28;20053;-34
2024/01/21 01:04:36;;;;;;;17.67;6.95;;;-4.90;99.90;;;-6.16;100.00;98346.38;4977633;28;20034;-35
2024/01/21 01:07:02;;;;;;;14.77;6.43;;;-4.90;99.90;;;-6.14;100.00;98354.16;4979364;28;20061;-35
2024/01/21 01:09:28;;;;;;;18.02;7.03;;;-4.90;99.90;;;-6.14;100.00;98346.47;4970148;28;20549;-35
2024/01/21 01:11:54;;;;;;;15.35;6.75;;;-4.90;99.90;;;-6.15;100.00;98337.03;4975685;28;20425;-36
2024/01/21 01:14:20;;;;;;;15.15;6.63;;;-4.90;99.90;;;-6.16;100.00;98345.53;4974280;28;20043;-36
2024/01/21 01:16:45;;;;;;;13.45;6.40;;;-4.90;99.90;;;-6.21;100.00;98329.94;4977990;28;20022;-35
2024/01/21 01:19:11;;;;;;;13.25;6.78;;;-4.90;99.90;;;-6.24;100.00;98323.78;4978583;28;20485;-36
2024/01/21 01:21:37;;;;;;;15.38;6.40;;;-5.00;99.90;;;-6.26;100.00;98316.00;4973513;28;20057;-36
2024/01/21 01:24:03;;;;;;;13.10;6.32;;;-5.00;99.90;;;-6.26;100.00;98312.53;4972445;28;20125;-36
2024/01/21 01:26:28;;;;;;;12.93;6.20;;;-5.00;99.90;;;-6.36;100.00;98309.56;4976073;28;20097;-36
2024/01/21 01:28:54;;;;;;;15.13;6.72;;;-5.00;99.90;;;-6.29;100.00;98325.28;4975241;28;20515;-36
2024/01/21 01:31:20;;;;;;;14.57;7.60;;;-5.00;99.90;;;-6.31;100.00;98332.03;4977506;28;20034;-36
2024/01/21 01:33:46;;;;;;;14.43;6.78;;;-5.10;99.90;;;-6.35;100.00;98324.19;4975631;28;20026;-34
2024/01/21 01:36:12;;;;;;;17.92;7.95;;;-5.10;99.90;;;-6.35;100.00;98310.47;4977186;28;20041;-36
2024/01/21 01:38:39;;;;;;;17.77;7.32;;;-5.10;99.90;;;-6.37;100.00;98317.19;4975396;28;20038;-36
2024/01/21 01:41:04;;;;;;;17.00;7.75;;;-5.10;99.90;;;-6.35;100.00;98313.03;4960356;28;20042;-37
2024/01/21 01:43:30;;;;;;;16.88;8.05;;;-5.10;99.90;;;-6.39;100.00;98312.03;4975910;28;20384;-34
2024/01/21 01:45:59;;;;;;;20.95;8.77;;;-5.10;99.90;;;-6.39;100.00;98313.69;4979330;28;20030;-34
2024/01/21 01:48:25;;;;;;;16.20;8.15;;;-5.10;99.90;;;-6.42;100.00;98309.31;4974794;28;20077;-34
2024/01/21 01:50:52;;;;;;;19.15;8.55;;;-5.10;99.90;;;-6.56;100.00;98280.47;4958131;28;20034;-35
2024/01/21 01:53:17;;;;;;;20.95;9.90;;;-5.20;99.90;;;-6.42;100.00;98309.31;4972053;28;20268;-35
2024/01/21 01:55:44;;;;;;;21.52;9.32;;;-5.10;99.90;;;-6.48;100.00;98293.63;4975960;28;20026;-35
2024/01/21 01:58:12;;;;;;;19.67;9.40;;;-5.10;99.90;;;-6.44;100.00;98292.06;4959212;28;20031;-35
2024/01/21 02:00:37;;;;;;;21.70;9.07;;;-5.10;99.90;;;-6.45;100.00;98300.59;4959332;28;20510;-35
2024/01/21 02:03:04;;;;;;;22.17;9.93;;;-5.20;99.90;;;-6.44;100.00;98292.97;4975912;28;20153;-35
2024/01/21 02:05:29;;;;;;;21.30;8.85;;;-5.10;99.90;;;-6.45;100.00;98292.91;4957937;28;20495;-35
2024/01/21 02:07:55;;;;;;;18.48;9.32;;;-5.10;99.90;;;-6.46;100.00;98292.03;4977283;28;20045;-35
2024/01/21 02:10:21;;;;;;;20.05;9.90;;;-5.10;99.90;;;-6.48;100.00;98280.81;4947201;28;20069;-35
2024/01/21 02:12:47;;;;;;;22.77;9.45;;;-5.20;99.90;;;-6.53;100.00;98274.63;4961179;28;20109;-35
2024/01/21 02:15:13;;;;;;;21.05;9.05;;;-5.20;99.90;;;-6.52;100.00;98271.22;4982635;28;20557;-36
2024/01/21 02:17:40;;;;;;;20.30;9.73;;;-5.20;99.90;;;-6.53;100.00;98275.47;4976577;28;20045;-34
2024/01/21 02:20:07;;;;;;;20.88;8.52;;;-5.20;99.90;;;-6.60;100.00;98258.06;4981138;28;20034;-35
2024/01/21 02:22:38;;;;;;;20.00;7.97;;;-5.20;99.90;;;-6.52;100.00;98266.09;4977396;28;20537;-35
2024/01/21 02:25:03;;;;;;;18.67;8.90;;;-5.20;99.90;;;-6.57;100.00;98244.47;4978232;28;20038;-35
2024/01/21 02:27:29;;;;;;;20.65;7.82;;;-5.30;99.90;;;-6.59;100.00;98248.66;4978687;28;20049;-35
2024/01/21 02:29:55;;;;;;;22.83;9.00;;;-5.30;99.90;;;-6.61;100.00;98243.47;4970476;28;20049;-36
2024/01/21 02:32:20;;;;;;;17.02;8.18;;;-5.30;99.90;;;-6.61;100.00;98245.16;4977836;28;20037;-35
2024/01/21 02:34:46;;;;;;;17.77;7.88;;;-5.30;99.90;;;-6.61;100.00;98248.59;4979128;28;20031;-35
2024/01/21 02:37:12;;;;;;;21.52;9.27;;;-5.30;99.90;;;-6.61;100.00;98250.28;4979835;28;20483;-36
2024/01/21 02:39:37;;;;;;;22.92;9.43;;;-5.40;99.90;;;-6.63;100.00;98254.47;4977776;28;20030;-35
2024/01/21 02:42:03;;;;;;;18.48;8.70;;;-5.40;99.90;;;-6.72;100.00;98245.56;4977013;28;20065;-35
2024/01/21 02:44:29;;;;;;;17.23;8.68;;;-5.40;99.90;;;-6.66;100.00;98254.34;4975906;28;20077;-35
2024/01/21 02:46:55;;;;;;;17.45;7.97;;;-5.40;99.90;;;-6.62;100.00;98274.19;4978593;28;20089;-35
2024/01/21 02:49:23;;;;;;;18.55;7.72;;;-5.40;99.90;;;-6.60;100.00;98263.19;4978759;28;20038;-35
2024/01/21 02:51:49;;;;;;;17.10;7.32;;;-5.30;99.90;;;-6.58;100.00;98271.81;4979125;28;20030;-35
2024/01/21 02:54:15;;;;;;;17.85;7.53;;;-5.30;99.90;;;-6.59;100.00;98271.75;4979535;28;20082;-35
2024/01/21 02:56:41;;;;;;;13.18;6.55;;;-5.30;99.90;;;-6.62;100.00;98261.34;4978778;28;20475;-35
2024/01/21 02:59:07;;;;;;;10.30;5.65;;;-5.30;99.90;;;-6.62;100.00;98258.78;4978736;28;20050;-35
2024/01/21 03:01:35;;;;;;;11.15;5.53;;;-5.30;99.90;;;-6.63;100.00;98262.19;4972073;28;20056;-35
2024/01/21 03:04:01;;;;;;;9.25;4.97;;;-5.30;99.90;;;-6.64;100.00;98265.53;4963891;28;21308;-35
2024/01/21 03:06:27;;;;;;;10.50;5.00;;;-5.30;99.90;;;-6.63;100.00;98257.03;4976787;28;20038;-35
2024/01/21 03:08:52;;;;;;;11.23;4.90;;;-5.30;99.90;;;-6.63;100.00;98254.47;4976127;28;20053;-35
2024/01/21 03:11:18;;;;;;;11.35;5.25;;;-5.30;99.90;;;-6.61;100.00;98251.16;4977911;28;20038;-35
2024/01/21 03:13:44;;;;;;;12.10;5.25;;;-5.30;99.90;;;-6.60;100.00;98255.50;4976916;28;20383;-35
2024/01/21 03:16:11;;;;;;;9.05;4.78;;;-5.30;99.90;;;-6.61;100.00;98251.16;4978505;28;20018;-35
2024/01/21 03:18:38;;;;;;;11.27;5.60;;;-5.30;99.90;;;-6.60;100.00;98254.63;4975454;28;20391;-35
2024/01/21 03:21:06;;;;;;;12.93;5.40;;;-5.30;99.90;;;-6.61;100.00;98251.16;4960844;28;20464;-35
2024/01/21 03:23:32;;;;;;;12.18;5.18;;;-5.30;99.90;;;-6.60;100.00;98252.06;4975615;28;20060;-34
2024/01/21 03:25:58;;;;;;;12.05;5.32;;;-5.30;99.90;;;-6.64;100.00;98225.38;4978531;28;20289;-34
2024/01/21 03:28:24;;;;;;;10.38;5.25;;;-5.30;99.90;;;-6.62;100.00;98231.47;4978099;28;20497;-35
2024/01/21 03:30:49;;;;;;;10.23;5.43;;;-5.30;99.90;;;-6.61;100.00;98227.19;4954305;28;20045;-35
2024/01/21 03:33:15;;;;;;;10.75;5.30;;;-5.30;99.90;;;-6.64;100.00;98237.31;4980686;28;20461;-35
2024/01/21 03:35:41;;;;;;;13.02;5.88;;;-5.30;99.90;;;-6.64;100.00;98235.66;4976822;28;20041;-35
2024/01/21 03:38:07;;;;;;;14.02;5.78;;;-5.30;99.90;;;-6.63;100.00;98246.78;4975893;28;20518;-35
2024/01/21 03:40:32;;;;;;;14.93;5.65;;;-5.30;99.90;;;-6.64;100.00;98239.88;4976614;28;20138;-35
2024/01/21 03:42:58;;;;;;;10.90;5.43;;;-5.30;99.90;;;-6.59;100.00;98235.84;4979322;28;20030;-35
2024/01/21 03:45:23;;;;;;;14.23;5.90;;;-5.20;99.90;;;-6.54;100.00;98234.34;4979240;28;20510;-35
2024/01/21 03:47:49;;;;;;;10.05;5.13;;;-5.20;99.90;;;-6.59;100.00;98216.16;4972692;28;20042;-35
2024/01/21 03:50:18;;;;;;;13.90;5.72;;;-5.20;99.90;;;-6.59;100.00;98211.03;4974913;28;20042;-36
2024/01/21 03:52:45;;;;;;;10.50;5.40;;;-5.20;99.90;;;-6.46;100.00;98226.97;4975648;28;20040;-36
2024/01/21 03:55:10;;;;;;;10.85;5.05;;;-5.10;99.90;;;-6.47;100.00;98228.66;4979753;28;20063;-36
2024/01/21 03:57:36;;;;;;;13.70;4.60;;;-5.20;99.90;;;-6.48;100.00;98237.16;4978699;28;20281;-36
2024/01/21 04:00:04;;;;;;;9.23;4.00;;;-5.20;99.90;;;-6.45;100.00;98232.19;4975757;28;20117;-35
2024/01/21 04:02:30;;;;;;;11.35;4.72;;;-5.10;99.90;;;-6.51;100.00;98221.66;4973582;28;20046;-36
2024/01/21 04:04:56;;;;;;;10.50;4.97;;;-5.10;99.90;;;-6.41;100.00;98223.78;4975454;28;20112;-36
2024/01/21 04:07:22;;;;;;;9.82;5.00;;;-5.00;99.90;;;-6.36;100.00;98224.88;4977848;28;20116;-36
2024/01/21 04:09:47;;;;;;;11.90;5.50;;;-5.00;99.90;;;-6.32;100.00;98223.31;4976142;28;20042;-35
2024/01/21 04:12:13;;;;;;;9.13;4.35;;;-5.00;99.90;;;-6.26;100.00;98215.88;4959513;28;20133;-36
2024/01/21 04:14:39;;;;;;;9.13;4.45;;;-4.90;99.90;;;-6.25;100.00;98215.06;4975390;28;20040;-36
2024/01/21 04:17:05;;;;;;;9.55;4.75;;;-4.90;99.90;;;-6.31;100.00;98190.84;4977589;28;20022;-36
2024/01/21 04:19:30;;;;;;;7.80;4.22;;;-4.90;99.90;;;-6.17;100.00;98206.00;4975780;28;20060;-36
2024/01/21 04:21:58;;;;;;;8.25;4.47;;;-4.80;99.90;;;-6.16;100.00;98202.59;4972732;28;20065;-36
2024/01/21 04:24:24;;;;;;;7.57;4.30;;;-4.80;99.90;;;-6.12;100.00;98200.16;4974245;28;20054;-35
2024/01/21 04:26:50;;;;;;;7.40;4.07;;;-4.80;99.90;;;-6.13;100.00;98198.41;4979244;28;20133;-36
2024/01/21 04:29:15;;;;;;;7.93;3.58;;;-4.80;99.90;;;-6.14;100.00;98194.97;4978339;28;20034;-34
2024/01/21 04:31:43;;;;;;;8.00;3.80;;;-4.80;99.90;;;-6.28;100.00;98162.69;4980086;28;20038;-34
2024/01/21 04:34:09;;;;;;;8.98;3.95;;;-4.80;99.90;;;-6.15;100.00;98188.94;4975070;28;20058;-34
2024/01/21 04:36:35;;;;;;;7.72;3.97;;;-4.80;99.90;;;-6.17;100.00;98184.56;4972664;28;20114;-34
2024/01/21 04:39:01;;;;;;;7.10;4.18;;;-4.80;99.90;;;-6.29;100.00;98161.81;4975636;28;20041;-34
2024/01/21 04:41:27;;;;;;;6.80;3.47;;;-4.80;99.90;;;-6.12;100.00;98187.31;4974651;28;20362;-35
2024/01/21 04:43:52;;;;;;;7.65;4.03;;;-4.80;99.90;;;-6.26;100.00;98154.25;4980292;28;20050;-35
2024/01/21 04:46:18;;;;;;;7.00;3.38;;;-4.80;99.90;;;-6.10;100.00;98173.75;4977476;28;20141;-35
2024/01/21 04:48:44;;;;;;;8.02;4.10;;;-4.80;99.90;;;-6.08;100.00;98171.22;4970656;28;20045;-35
2024/01/21 04:51:10;;;;;;;7.85;3.85;;;-4.80;99.90;;;-6.07;100.00;98168.72;4975838;28;20108;-35
2024/01/21 04:53:39;;;;;;;9.02;4.28;;;-4.80;99.90;;;-6.03;100.00;98164.56;4977188;28;20126;-35
2024/01/21 04:56:05;;;;;;;7.03;3.50;;;-4.70;99.90;;;-6.13;100.00;98152.19;4975217;28;20037;-40
2024/01/21 04:58:34;;;;;;;9.85;3.63;;;-4.70;99.90;;;-6.03;100.00;98169.72;4974131;28;20038;-36
2024/01/21 05:01:00;;;;;;;7.07;3.63;;;-4.70;99.90;;;-6.03;100.00;98165.47;4974728;28;20121;-34
2024/01/21 05:03:26;;;;;;;7.90;3.63;;;-4.70;99.90;;;-5.98;100.00;98175.91;4977729;28;20030;-36
2024/01/21 05:05:52;;;;;;;7.88;3.65;;;-4.60;99.90;;;-5.93;100.00;98176.09;4970572;28;20046;-36
2024/01/21 05:08:17;;;;;;;6.88;3.95;;;-4.60;99.90;;;-5.93;100.00;98174.38;4978277;28;20603;-35
2024/01/21 05:10:43;;;;;;;8.35;4.00;;;-4.60;99.90;;;-5.90;100.00;98186.47;4977147;28;20121;-34
2024/01/21 05:13:09;;;;;;;10.27;3.70;;;-4.60;99.90;;;-5.87;100.00;98187.47;4977140;28;20035;-34
2024/01/21 05:15:34;;;;;;;7.35;3.63;;;-4.60;99.90;;;-5.84;100.00;98190.16;4974060;28;20337;-33
2024/01/21 05:18:00;;;;;;;9.60;3.25;;;-4.50;99.90;;;-5.85;100.00;98200.38;4971152;28;20030;-34
2024/01/21 05:20:25;;;;;;;6.47;3.38;;;-4.50;99.90;;;-5.85;100.00;98198.69;4974973;28;20361;-36
2024/01/21 05:22:51;;;;;;;7.35;3.63;;;-4.50;99.90;;;-5.82;100.00;98205.63;4974903;28;20078;-34
2024/01/21 05:25:20;;;;;;;6.30;3.50;;;-4.50;99.90;;;-5.74;100.00;98219.69;4974516;28;20038;-34
2024/01/21 05:27:45;;;;;;;7.38;4.07;;;-4.50;99.90;;;-5.72;100.00;98225.75;4957249;28;20030;-35
2024/01/21 05:30:12;;;;;;;7.70;3.35;;;-4.40;99.90;;;-5.69;100.00;98240.41;4977014;28;20295;-35
2024/01/21 05:32:38;;;;;;;6.88;2.95;;;-4.40;99.90;;;-5.68;100.00;98240.47;4972951;28;20034;-35
2024/01/21 05:35:04;;;;;;;7.43;3.30;;;-4.40;99.90;;;-5.66;100.00;98238.84;4974877;28;20142;-35
2024/01/21 05:37:30;;;;;;;7.00;3.40;;;-4.40;99.90;;;-5.65;100.00;98245.75;4976047;28;20022;-35
2024/01/21 05:39:56;;;;;;;8.63;3.65;;;-4.40;99.90;;;-5.65;100.00;98244.84;4974551;28;20037;-35
2024/01/21 05:42:21;;;;;;;6.32;3.38;;;-4.40;99.90;;;-5.75;100.00;98234.19;4978460;28;20112;-35
2024/01/21 05:44:47;;;;;;;8.50;3.50;;;-4.40;99.90;;;-5.72;100.00;98236.03;4979731;28;20034;-35
2024/01/21 05:47:13;;;;;;;6.72;3.25;;;-4.40;99.90;;;-5.81;100.00;98217.69;4976015;28;20130;-34
2024/01/21 05:49:39;;;;;;;6.05;3.25;;;-4.40;99.90;;;-5.73;100.00;98238.53;4977286;28;20053;-36
2024/01/21 05:52:05;;;;;;;7.30;3.85;;;-4.50;99.90;;;-5.75;100.00;98249.63;4978018;28;20029;-34
2024/01/21 05:54:31;;;;;;;7.72;3.40;;;-4.50;99.90;;;-5.78;100.00;98264.03;4980040;28;20045;-35
2024/01/21 05:56:57;;;;;;;6.80;3.30;;;-4.50;99.90;;;-5.79;100.00;98268.31;4980343;28;20379;-36
2024/01/21 05:59:22;;;;;;;5.82;3.50;;;-4.50;99.90;;;-5.77;100.00;98274.38;4981365;28;20037;-35
2024/01/21 06:01:49;;;;;;;7.47;3.38;;;-4.50;99.90;;;-5.77;100.00;98269.25;4978211;28;20030;-36
2024/01/21 06:04:18;;;;;;;8.52;3.47;;;-4.50;99.90;;;-5.76;100.00;98278.72;4961773;28;20286;-36
2024/01/21 06:06:44;;;;;;;7.25;3.67;;;-4.50;99.90;;;-5.78;100.00;98282.94;4978310;28;20467;-35
2024/01/21 06:09:10;;;;;;;6.63;3.78;;;-4.50;99.90;;;-5.90;100.00;98266.09;4981325;28;20030;-36
2024/01/21 06:11:36;;;;;;;6.93;3.65;;;-4.60;99.90;;;-5.85;100.00;98282.59;4980194;28;20364;-35
2024/01/21 06:14:01;;;;;;;6.32;3.35;;;-4.60;99.90;;;-5.89;100.00;98279.00;4979019;28;20026;-35
2024/01/21 06:16:27;;;;;;;7.50;3.47;;;-4.60;99.90;;;-5.89;100.00;98278.13;4979200;28;20068;-36
2024/01/21 06:18:53;;;;;;;6.72;3.38;;;-4.60;99.90;;;-5.90;100.00;98284.06;4978821;28;20031;-36
2024/01/21 06:21:18;;;;;;;7.47;3.92;;;-4.60;99.90;;;-5.96;100.00;98280.50;4979797;28;21778;-36
2024/01/21 06:23:45;;;;;;;8.35;3.92;;;-4.70;99.90;;;-6.04;100.00;98275.84;4978688;28;20034;-35
2024/01/21 06:26:22;;;;;;;5.18;3.17;;;-4.70;99.90;;;-6.02;100.00;98284.50;4980206;28;20026;-35
2024/01/21 06:28:51;;;;;;;7.82;3.67;;;-4.80;99.90;;;-6.06;100.00;98288.63;4979185;28;20041;-36
2024/01/21 06:31:17;;;;;;;7.28;3.55;;;-4.80;99.90;;;-6.14;100.00;98274.56;4980249;28;20569;-34
2024/01/21 06:33:44;;;;;;;6.78;3.60;;;-4.80;99.90;;;-6.15;100.00;98277.97;4979455;28;20095;-34
2024/01/21 06:36:09;;;;;;;6.78;3.33;;;-4.80;99.90;;;-6.23;100.00;98269.91;4979100;28;20037;-34
2024/01/21 06:38:35;;;;;;;6.55;3.70;;;-4.90;99.90;;;-6.23;100.00;98274.16;4979779;28;20034;-32
2024/01/21 06:41:01;;;;;;;9.13;3.65;;;-4.90;99.90;;;-6.25;100.00;98271.53;4978165;28;20176;-35
2024/01/21 06:43:27;;;;;;;7.30;3.63;;;-4.90;99.90;;;-6.27;100.00;98273.16;4975678;28;20034;-35
2024/01/21 06:45:52;;;;;;;8.20;3.80;;;-4.90;99.90;;;-6.32;100.00;98268.66;4978752;28;20038;-36
2024/01/21 06:48:18;;;;;;;6.93;3.75;;;-4.90;99.90;;;-6.32;100.00;98258.38;4979648;28;20033;-36
2024/01/21 06:50:48;;;;;;;6.57;3.50;;;-5.00;99.90;;;-6.35;100.00;98262.56;4976951;28;20038;-36
2024/01/21 06:53:15;;;;;;;7.97;3.50;;;-5.00;99.90;;;-6.35;100.00;98264.28;4980034;28;20550;-36
2024/01/21 06:55:43;;;;;;;8.13;3.55;;;-5.10;99.90;;;-6.37;100.00;98263.28;4961376;28;20030;-36
2024/01/21 06:58:09;;;;;;;6.25;3.53;;;-5.10;99.90;;;-6.40;100.00;98266.63;4960050;28;20117;-33
2024/01/21 07:00:35;;;;;;;7.10;3.25;;;-5.10;99.90;;;-6.48;100.00;98250.00;4978894;28;20096;-35
2024/01/21 07:03:00;;;;;;;8.23;3.75;;;-5.20;99.90;;;-6.50;100.00;98253.31;4978576;28;20061;-35
2024/01/21 07:05:26;;;;;;;7.00;3.78;;;-5.20;99.90;;;-6.45;100.00;98270.69;4974644;28;20030;-35
2024/01/21 07:07:52;;;;;;;5.38;2.88;;;-5.10;99.90;;;-6.45;100.00;98268.09;4980600;28;20096;-36
2024/01/21 07:10:17;;;;;;;8.48;3.60;;;-5.20;99.90;;;-6.49;100.00;98257.66;4977958;28;20033;-36
2024/01/21 07:12:43;;;;;;;6.95;3.53;;;-5.10;99.90;;;-6.46;100.00;98257.78;4978831;28;20042;-36
2024/01/21 07:15:09;;;;;;;6.82;3.58;;;-5.10;99.90;;;-6.41;100.00;98259.72;4978005;28;20395;-36
2024/01/21 07:17:35;;;;;;;7.40;3.80;;;-5.10;99.90;;;-6.37;100.00;98256.50;4979653;28;20527;-35
2024/01/21 07:20:01;;;;;;;8.35;3.67;;;-5.00;99.90;;;-6.33;100.00;98254.94;4979287;28;20149;-36
2024/01/21 07:22:27;;;;;;;7.68;4.00;;;-5.00;99.90;;;-6.29;100.00;98255.94;4977482;28;20034;-36
2024/01/21 07:24:53;;;;;;;7.82;3.53;;;-5.00;99.90;;;-6.22;100.00;98266.53;4977791;28;20100;-35
2024/01/21 07:27:19;;;;;;;7.90;3.67;;;-4.90;99.90;;;-6.17;100.00;98274.44;4977839;28;20149;-34
2024/01/21 07:29:44;;;;;;;6.78;4.00;;;-4.90;99.90;;;-6.12;100.00;98283.19;4978080;28;20036;-34
2024/01/21 07:32:10;;;;;;;8.57;4.10;;;-4.80;99.90;;;-6.03;100.00;98268.22;4977459;28;20042;-35
2024/01/21 07:34:36;;;;;;;6.63;3.72;;;-4.70;99.90;;;-5.98;100.00;98255.53;4959022;28;20035;-35
2024/01/21 07:37:02;;;;;;;7.18;3.78;;;-4.60;99.90;;;-5.85;100.00;98277.44;4975935;28;20502;-34
2024/01/21 07:39:27;;;;;;;7.43;3.97;;;-4.50;99.90;;;-5.83;100.00;98265.53;4959610;28;20415;-35
2024/01/21 07:41:53;;;;;;;8.55;4.07;;;-4.50;99.90;;;-5.61;100.00;98280.16;4977128;28;20034;-35
2024/01/21 07:44:19;;;;;;;8.02;3.92;;;-4.40;99.90;;;-5.50;100.00;98283.16;4976728;28;20042;-35
2024/01/21 07:46:44;;;;;;;7.28;3.85;;;-4.20;99.90;;;-5.40;100.00;98277.56;4976986;28;20038;-35
2024/01/21 07:49:10;;;;;;;7.43;4.22;;;-4.10;99.90;;;-5.27;100.00;98282.38;4975067;28;20491;-35
2024/01/21 07:51:36;;;;;;;8.82;4.07;;;-4.00;99.90;;;-5.10;100.00;98284.72;4975573;28;20043;-35
2024/01/21 07:54:01;;;;;;;7.90;4.05;;;-3.90;99.90;;;-4.94;100.00;98258.78;4978360;28;20027;-35
2024/01/21 07:56:27;;;;;;;9.15;4.40;;;-3.70;99.90;;;-4.80;100.00;98255.03;4977218;28;20022;-35
2024/01/21 07:58:53;;;;;;;11.68;4.72;;;-3.50;99.90;;;-4.63;100.00;98247.03;4974311;28;20049;-35
2024/01/21 08:01:21;;;;;;;9.30;4.80;;;-3.40;99.90;;;-4.49;100.00;98245.84;4977180;28;20038;-35
2024/01/21 08:03:47;;;;;;;7.65;4.65;;;-3.20;99.90;;;-4.25;100.00;98252.69;4977814;28;20065;-35
2024/01/21 08:06:13;;;;;;;10.70;5.05;;;-3.00;99.90;;;-4.10;100.00;98260.06;4958920;28;20411;-35
2024/01/21 08:08:39;;;;;;;10.65;4.82;;;-2.90;99.90;;;-3.98;100.00;98252.78;4976195;28;20053;-36
2024/01/21 08:11:05;;;;;;;7.25;4.75;;;-2.70;99.90;;;-3.77;100.00;98264.63;4959826;28;20097;-35
2024/01/21 08:13:30;;;;;;;8.90;4.60;;;-2.60;99.90;;;-3.65;100.00;98253.00;4977917;28;20479;-36
2024/01/21 08:15:56;;;;;;;8.10;4.20;;;-2.50;99.90;;;-3.48;100.00;98263.88;4974687;28;20026;-36
2024/01/21 08:18:22;;;;;;;7.18;4.40;;;-2.30;99.90;;;-3.32;100.00;98266.94;4977741;28;20033;-36
2024/01/21 08:20:48;;;;;;;7.78;4.13;;;-2.20;99.90;;;-3.24;100.00;98262.91;4977741;28;20026;-36
2024/01/21 08:23:14;;;;;;;7.45;4.07;;;-2.00;99.90;;;-3.07;100.00;98274.63;4975696;28;20034;-35
2024/01/21 08:25:41;;;;;;;7.60;4.50;;;-1.90;99.90;;;-2.90;100.00;98284.59;4975747;28;20113;-36
2024/01/21 08:28:07;;;;;;;8.57;4.15;;;-1.80;99.90;;;-2.82;100.00;98280.50;4977325;28;20045;-36
2024/01/21 08:30:32;;;;;;;10.60;4.78;;;-1.70;99.90;;;-2.74;100.00;98281.63;4975548;28;20121;-35
2024/01/21 08:32:58;;;;;;;6.90;4.30;;;-1.60;99.90;;;-2.63;100.00;98291.41;4977384;28;20056;-35
2024/01/21 08:35:24;;;;;;;13.50;4.95;;;-1.60;99.90;;;-2.56;100.00;98289.03;4979288;28;20396;-36
2024/01/21 08:37:50;;;;;;;7.75;4.50;;;-1.50;99.90;;;-2.56;100.00;98283.88;4977537;28;20120;-36
2024/01/21 08:40:15;;;;;;;10.00;4.35;;;-1.40;99.90;;;-2.42;100.00;98291.13;4972245;28;20779;-35
2024/01/21 08:42:42;;;;;;;8.70;4.28;;;-1.30;99.90;;;-2.41;100.00;98277.41;4977690;28;20116;-36
2024/01/21 08:45:08;;;;;;;9.20;4.82;;;-1.20;99.90;;;-2.22;100.00;98290.00;4978694;28;20108;-35
2024/01/21 08:47:34;;;;;;;7.80;4.57;;;-1.10;99.90;;;-2.16;100.00;98287.59;4977693;28;20069;-35
2024/01/21 08:50:00;;;;;;;7.10;4.50;;;-1.00;99.90;;;-2.10;100.00;98289.44;4975086;28;20035;-35
2024/01/21 08:52:26;;;;;;;8.38;4.47;;;-1.00;99.90;;;-2.07;100.00;98274.03;4974873;28;20069;-34
2024/01/21 08:54:52;;;;;;;7.40;4.30;;;-0.90;99.90;;;-1.94;100.00;98268.38;4978234;28;20038;-34
2024/01/21 08:57:18;;;;;;;9.70;4.50;;;-0.80;99.90;;;-1.76;100.00;98283.50;4975435;28;20402;-36
2024/01/21 08:59:43;;;;;;;9.65;4.80;;;-0.70;99.90;;;-1.74;100.00;98288.72;4977164;28;20080;-35
2024/01/21 09:02:09;;;;;;;9.60;4.78;;;-0.60;99.90;;;-1.66;100.00;98291.50;4975472;28;20037;-35
2024/01/21 09:04:40;;;;;;;13.65;5.45;;;-0.60;99.90;;;-1.63;100.00;98287.28;4974565;28;20026;-34
2024/01/21 09:07:06;;;;;;;9.88;5.38;;;-0.50;99.90;;;-1.58;100.00;98292.53;4978700;28;20226;-35
2024/01/21 09:09:32;;;;;;;7.55;4.53;;;-0.50;99.90;;;-1.56;100.00;98298.66;4974718;28;20093;-35
2024/01/21 09:11:58;;;;;;;11.32;4.80;;;-0.50;99.90;;;-1.54;100.00;98300.44;4976762;28;20026;-35
2024/01/21 09:14:24;;;;;;;8.25;4.85;;;-0.40;99.90;;;-1.62;100.00;98270.03;4974732;28;20658;-35
2024/01/21 09:16:49;;;;;;;8.57;4.65;;;-0.40;99.90;;;-1.51;100.00;98301.34;4978662;28;20495;-35
2024/01/21 09:19:15;;;;;;;9.70;4.53;;;-0.40;99.90;;;-1.48;100.00;98297.13;4981434;28;20531;-35
2024/01/21 09:21:41;;;;;;;7.85;4.90;;;-0.30;99.90;;;-1.39;100.00;98294.75;4977225;28;20105;-35
2024/01/21 09:24:07;;;;;;;8.15;4.30;;;-0.30;99.90;;;-1.40;100.00;98285.25;4964613;28;20351;-34
2024/01/21 09:26:34;;;;;;;9.90;4.63;;;-0.20;99.90;;;-1.29;100.00;98310.50;4982094;28;20037;-35
2024/01/21 09:29:00;;;;;;;9.23;4.20;;;-0.10;99.90;;;-1.19;100.00;98310.75;4981395;28;20046;-35
2024/01/21 09:31:26;;;;;;;8.40;4.50;;;-0.10;99.90;;;-1.09;100.00;98292.88;4979936;28;20085;-35
2024/01/21 09:33:52;;;;;;;9.10;4.95;;;0.10;99.90;;;-0.99;100.00;98292.25;4966798;28;20555;-34
2024/01/21 09:36:19;;;;;;;8.75;4.30;;;0.10;99.90;;;-0.88;100.00;98295.97;4984225;28;20325;-35
2024/01/21 09:38:45;;;;;;;9.20;5.00;;;0.20;99.90;;;-0.79;100.00;98287.50;4981125;28;20069;-35
2024/01/21 09:41:19;;;;;;;10.77;4.93;;;0.30;99.90;;;-0.70;100.00;98286.84;4967479;28;20113;-34
2024/01/21 09:43:45;;;;;;;7.72;4.65;;;0.40;99.90;;;-0.54;100.00;98301.00;4981750;28;20184;-35
2024/01/21 09:46:12;;;;;;;8.45;5.05;;;0.60;99.90;;;-0.48;100.00;98278.69;4982251;28;20031;-35
2024/01/21 09:48:38;;;;;;;8.73;4.88;;;0.70;99.90;;;-0.36;100.00;98280.66;4979523;28;20434;-35
2024/01/21 09:51:06;;;;;;;8.73;5.10;;;0.80;99.90;;;-0.31;100.00;98299.78;4980769;28;20038;-35
2024/01/21 09:53:33;;;;;;;9.00;4.88;;;0.90;99.90;;;-0.25;100.00;98305.09;4982498;28;20361;-35
2024/01/21 09:56:07;;;;;;;11.20;5.32;;;0.90;99.90;;;-0.08;100.00;98320.13;4985611;28;20026;-35
2024/01/21 09:58:46;;;;;;;8.82;5.13;;;1.00;99.90;;;-0.03;100.00;98321.94;4982034;28;20023;-35
2024/01/21 10:01:12;;;;;;;7.88;4.65;;;1.10;99.90;;;0.04;100.00;98325.56;4964503;28;20132;-36
2024/01/21 10:03:39;;;;;;;8.05;4.55;;;1.10;99.90;;;0.17;100.00;98319.72;4979876;28;20049;-35
2024/01/21 10:06:04;;;;;;;8.35;4.22;;;1.20;99.90;;;0.29;100.00;98323.44;4975996;28;20462;-34